El-djazair II — 7TBR — position and weather

sailwx.info

Track history (hours):
 
Tides and Currents Weather Stations Pressure Air Temp Water Temp Dewpoint Dewpoint Depression Visibility Wind Speed Wind Dir Waves Ship Positions

El-djazair II

Last reported at 2018-May-26 02:54 UTC. Time now 2018-May-26 07:48 UTC.
Position N 43°18' E 005°22'.

Length 146 m; draft 6.3 m.

Type: Passenger vessel. MMSI: 605026190.

Date/timePositionNaut miles runAvg speedWind from/ knotsBaromVisibWave heightAir tempDewpointWater temp
2018-May-26 02:54N 43°18' E 005°22'0 0.0
2018-May-26 02:27N 43°18' E 005°22'0 0.0
2018-May-26 01:54N 43°18' E 005°22'0 0.0
2018-May-26 01:27N 43°18' E 005°22'0 0.0
2018-May-25 22:14N 43°18' E 005°22'0 0.0
2018-May-25 21:53N 43°18' E 005°22'0 0.0
2018-May-25 18:05N 43°18' E 005°22'0 0.0
2018-May-25 17:59N 43°18' E 005°22'0 0.0
2018-May-25 10:47N 43°18' E 005°22'0 0.0
2018-May-25 10:26N 43°18' E 005°22'0 0.0
2018-May-24 14:04N 43°18' E 005°22'0 0.0
2018-May-24 13:59N 43°18' E 005°22'0 0.0
2018-May-24 13:15N 43°18' E 005°22'7617.5
2018-May-24 08:56N 42°03' E 005°37'919.8
2018-May-24 08:30N 41°55' E 005°39'11119.4
2018-May-24 02:45N 40°06' E 006°07'190 5.0
2018-May-22 12:44N 43°12' E 005°18'418.3
2018-May-22 12:30N 43°16' E 005°19'2 0.8
2018-May-22 09:15N 43°18' E 005°21'411.2
2018-May-22 08:54N 43°15' E 005°18'22319.5
2018-May-21 21:26N 39°45' E 003°38'1719.3
2018-May-21 20:35N 39°28' E 003°34'219.1
2018-May-21 20:27N 39°26' E 003°34'1019.1
2018-May-21 19:57N 39°16' E 003°32'1719.3
2018-May-21 19:02N 38°59' E 003°29'  
2018-May-19 14:54N 43°11' E 005°17'716.9
2018-May-19 14:30N 43°18' E 005°21'1 0.2
2018-May-19 11:13N 43°18' E 005°22'410.0
2018-May-19 10:50N 43°15' E 005°18'818.8
2018-May-19 10:24N 43°08' E 005°14'21319.2
2018-May-18 23:18N 39°47' E 003°38'1619.2
2018-May-18 22:29N 39°31' E 003°35'232 7.1
2018-May-17 13:42N 43°11' E 005°16'419.1
2018-May-17 13:31N 43°14' E 005°18'5 0.6
2018-May-17 04:52N 43°18' E 005°22'5 8.4
2018-May-17 04:20N 43°15' E 005°18'916.8
2018-May-17 03:47N 43°09' E 005°08'618.8
2018-May-17 03:29N 43°09' E 005°00'918.6
2018-May-17 03:00N 43°07' E 004°49'1018.8
2018-May-17 02:29N 43°03' E 004°36'8917.3
2018-May-16 21:19N 41°38' E 003°60'619.3
2018-May-16 21:00N 41°32' E 003°59'10919.5
2018-May-16 15:25N 39°45' E 003°37'1319.4
2018-May-16 14:43N 39°31' E 003°35'419.2
2018-May-16 14:30N 39°27' E 003°35'1119.3
2018-May-16 13:58N 39°17' E 003°33'1819.1
2018-May-16 13:03N 38°59' E 003°30'119.0
2018-May-16 13:00N 38°58' E 003°30'919.0
2018-May-16 12:30N 38°49' E 003°28'1719.1
2018-May-16 11:37N 38°32' E 003°25'  
Track history (hours):
 
Tides and Currents Weather Stations Pressure Air Temp Water Temp Dewpoint Dewpoint Depression Visibility Wind Speed Wind Dir Waves Ship Positions

El-djazair II

Last reported at 2018-May-26 02:54 UTC. Time now 2018-May-26 07:48 UTC.
Position N 43°18' E 005°22'.

Length 146 m; draft 6.3 m.

Type: Passenger vessel. MMSI: 605026190.

Date/timePositionNaut miles runAvg speedWind from/ knotsBaromVisibWave heightAir tempDewpointWater temp
2018-May-26 02:54N 43°18' E 005°22'0 0.0
2018-May-26 02:27N 43°18' E 005°22'0 0.0
2018-May-26 01:54N 43°18' E 005°22'0 0.0
2018-May-26 01:27N 43°18' E 005°22'0 0.0
2018-May-25 22:14N 43°18' E 005°22'0 0.0
2018-May-25 21:53N 43°18' E 005°22'0 0.0
2018-May-25 18:05N 43°18' E 005°22'0 0.0
2018-May-25 17:59N 43°18' E 005°22'0 0.0
2018-May-25 10:47N 43°18' E 005°22'0 0.0
2018-May-25 10:26N 43°18' E 005°22'0 0.0
2018-May-24 14:04N 43°18' E 005°22'0 0.0
2018-May-24 13:59N 43°18' E 005°22'0 0.0
2018-May-24 13:15N 43°18' E 005°22'7617.5
2018-May-24 08:56N 42°03' E 005°37'919.8
2018-May-24 08:30N 41°55' E 005°39'11119.4
2018-May-24 02:45N 40°06' E 006°07'190 5.0
2018-May-22 12:44N 43°12' E 005°18'418.3
2018-May-22 12:30N 43°16' E 005°19'2 0.8
2018-May-22 09:15N 43°18' E 005°21'411.2
2018-May-22 08:54N 43°15' E 005°18'22319.5
2018-May-21 21:26N 39°45' E 003°38'1719.3
2018-May-21 20:35N 39°28' E 003°34'219.1
2018-May-21 20:27N 39°26' E 003°34'1019.1
2018-May-21 19:57N 39°16' E 003°32'1719.3
2018-May-21 19:02N 38°59' E 003°29'  
2018-May-19 14:54N 43°11' E 005°17'716.9
2018-May-19 14:30N 43°18' E 005°21'1 0.2
2018-May-19 11:13N 43°18' E 005°22'410.0
2018-May-19 10:50N 43°15' E 005°18'818.8
2018-May-19 10:24N 43°08' E 005°14'21319.2
2018-May-18 23:18N 39°47' E 003°38'1619.2
2018-May-18 22:29N 39°31' E 003°35'232 7.1
2018-May-17 13:42N 43°11' E 005°16'419.1
2018-May-17 13:31N 43°14' E 005°18'5 0.6
2018-May-17 04:52N 43°18' E 005°22'5 8.4
2018-May-17 04:20N 43°15' E 005°18'916.8
2018-May-17 03:47N 43°09' E 005°08'618.8
2018-May-17 03:29N 43°09' E 005°00'918.6
2018-May-17 03:00N 43°07' E 004°49'1018.8
2018-May-17 02:29N 43°03' E 004°36'8917.3
2018-May-16 21:19N 41°38' E 003°60'619.3
2018-May-16 21:00N 41°32' E 003°59'10919.5
2018-May-16 15:25N 39°45' E 003°37'1319.4
2018-May-16 14:43N 39°31' E 003°35'419.2
2018-May-16 14:30N 39°27' E 003°35'1119.3
2018-May-16 13:58N 39°17' E 003°33'1819.1
2018-May-16 13:03N 38°59' E 003°30'119.0
2018-May-16 13:00N 38°58' E 003°30'919.0
2018-May-16 12:30N 38°49' E 003°28'1719.1
2018-May-16 11:37N 38°32' E 003°25'  

Dump ship's entire track history